createdAt,value
2018-12-29T00:00:36.865Z,80.75
2018-12-29T00:01:36.805Z,80.56
2018-12-29T00:02:36.743Z,80.65
2018-12-29T00:03:36.677Z,80.94
2018-12-29T00:04:36.617Z,80.56
2018-12-29T00:05:36.554Z,81.04
2018-12-29T00:06:36.492Z,80.94
2018-12-29T00:07:36.429Z,80.56
2018-12-29T00:08:36.368Z,80.56
2018-12-29T00:09:36.305Z,80.56
2018-12-29T00:10:36.243Z,80.75
2018-12-29T00:11:36.181Z,81.04
2018-12-29T00:12:36.118Z,81.04
2018-12-29T00:13:36.057Z,81.04
2018-12-29T00:14:35.993Z,80.56
2018-12-29T00:15:35.932Z,81.04
2018-12-29T00:16:35.870Z,81.04
2018-12-29T00:17:35.808Z,81.04
2018-12-29T00:18:35.746Z,81.13
2018-12-29T00:19:35.685Z,80.94
2018-12-29T00:20:35.623Z,81.13
2018-12-29T00:21:35.560Z,81.04
2018-12-29T00:22:35.496Z,81.04
2018-12-29T00:23:35.435Z,81.04
2018-12-29T00:24:35.379Z,81.04
2018-12-29T00:25:35.311Z,81.04
2018-12-29T00:26:35.250Z,81.13
2018-12-29T00:27:35.186Z,81.13
2018-12-29T00:28:35.124Z,81.23
2018-12-29T00:29:35.062Z,80.94
2018-12-29T00:30:34.999Z,80.56
2018-12-29T00:31:34.941Z,80.56
2018-12-29T00:32:34.877Z,80.56
2018-12-29T00:33:34.824Z,81.04
2018-12-29T00:34:34.752Z,81.13
2018-12-29T00:35:34.689Z,81.13
2018-12-29T00:36:34.629Z,81.04
2018-12-29T00:37:34.567Z,81.23
2018-12-29T00:38:34.507Z,81.13
2018-12-29T00:39:34.440Z,80.94
2018-12-29T00:40:34.378Z,81.04
2018-12-29T00:41:34.318Z,81.04
2018-12-29T00:42:34.254Z,81.13
2018-12-29T00:43:34.192Z,81.04
2018-12-29T00:44:34.132Z,80.56
2018-12-29T00:45:34.068Z,80.84
2018-12-29T00:46:34.006Z,80.56
2018-12-29T00:47:33.943Z,81.23
2018-12-29T00:48:33.880Z,81.04
2018-12-29T00:49:33.819Z,81.23
2018-12-29T00:50:33.760Z,81.04
2018-12-29T00:51:33.695Z,81.04
2018-12-29T00:52:33.632Z,81.23
2018-12-29T00:53:33.570Z,81.13
2018-12-29T00:54:33.508Z,80.75
2018-12-29T00:55:33.445Z,81.04
2018-12-29T00:56:33.388Z,80.56
2018-12-29T00:57:33.322Z,80.56
2018-12-29T00:58:33.260Z,81.04
2018-12-29T00:59:33.197Z,80.46
2018-12-29T01:00:33.135Z,80.56
2018-12-29T01:01:33.075Z,80.75
2018-12-29T01:02:33.011Z,80.94
2018-12-29T01:03:32.952Z,80.94
2018-12-29T01:04:32.887Z,81.23
2018-12-29T01:05:32.825Z,81.04
2018-12-29T01:06:32.761Z,80.94
2018-12-29T01:07:32.699Z,81.04
2018-12-29T01:08:32.639Z,81.04
2018-12-29T01:09:32.577Z,81.04
2018-12-29T01:10:32.517Z,81.04
2018-12-29T01:11:32.452Z,81.04
2018-12-29T01:12:32.390Z,81.04
2018-12-29T01:13:32.332Z,80.94
2018-12-29T01:14:32.268Z,80.65
2018-12-29T01:15:32.205Z,80.84
2018-12-29T01:16:32.142Z,80.46
2018-12-29T01:17:32.079Z,80.75
2018-12-29T01:18:32.017Z,81.04
2018-12-29T01:19:31.955Z,80.94
2018-12-29T01:20:31.894Z,80.56
2018-12-29T01:21:31.834Z,80.65
2018-12-29T01:22:31.767Z,80.75
2018-12-29T01:23:31.705Z,81.04
2018-12-29T01:24:31.644Z,81.04
2018-12-29T01:25:31.582Z,80.94
2018-12-29T01:26:31.523Z,80.75
2018-12-29T01:27:31.459Z,80.65
2018-12-29T01:28:31.397Z,80.65
2018-12-29T01:29:31.334Z,80.65
2018-12-29T01:30:31.271Z,80.65
2018-12-29T01:31:31.209Z,80.84
2018-12-29T01:32:31.147Z,80.75
2018-12-29T01:33:31.085Z,80.56
2018-12-29T01:34:31.022Z,80.56
2018-12-29T01:35:30.960Z,80.56
2018-12-29T01:36:30.900Z,80.65
2018-12-29T01:37:30.836Z,80.75
2018-12-29T01:38:30.774Z,80.56
2018-12-29T01:39:30.711Z,80.84
2018-12-29T01:40:30.650Z,81.13
2018-12-29T01:41:30.587Z,81.04
2018-12-29T01:42:30.525Z,80.56
2018-12-29T01:43:30.465Z,81.04
2018-12-29T01:44:30.403Z,81.04
2018-12-29T01:45:30.341Z,80.56
2018-12-29T01:46:30.276Z,80.94
2018-12-29T01:47:30.215Z,81.13
2018-12-29T01:48:30.152Z,81.13
2018-12-29T01:49:30.091Z,80.56
2018-12-29T01:50:30.030Z,80.75
2018-12-29T01:51:29.967Z,81.04
2018-12-29T01:52:29.903Z,81.04
2018-12-29T01:53:29.849Z,81.04
2018-12-29T01:54:29.779Z,81.13
2018-12-29T01:55:29.720Z,81.04
2018-12-29T01:56:29.656Z,81.04
2018-12-29T01:57:29.593Z,81.04
2018-12-29T01:58:29.532Z,80.94
2018-12-29T01:59:29.468Z,81.13
2018-12-29T02:00:29.409Z,81.13
2018-12-29T02:01:29.440Z,81.13
2018-12-29T02:02:29.334Z,81.04
2018-12-29T02:03:29.219Z,81.13
2018-12-29T02:04:29.158Z,81.13
2018-12-29T02:05:29.096Z,81.04
2018-12-29T02:06:29.038Z,81.04
2018-12-29T02:07:28.971Z,81.13
2018-12-29T02:08:28.909Z,81.04
2018-12-29T02:09:28.850Z,81.04
2018-12-29T02:10:28.784Z,81.04
2018-12-29T02:11:28.722Z,81.04
2018-12-29T02:12:28.666Z,80.37
2018-12-29T02:13:28.598Z,81.04
2018-12-29T02:14:28.535Z,80.37
2018-12-29T02:15:28.474Z,81.04
2018-12-29T02:16:28.412Z,80.27
2018-12-29T02:17:28.352Z,81.04
2018-12-29T02:18:28.287Z,81.04
2018-12-29T02:19:28.226Z,81.04
2018-12-29T02:20:28.164Z,80.94
2018-12-29T02:21:28.101Z,80.94
2018-12-29T02:22:28.038Z,80.37
2018-12-29T02:23:27.977Z,80.65
2018-12-29T02:24:27.915Z,80.65
2018-12-29T02:25:27.853Z,80.56
2018-12-29T02:26:27.795Z,80.37
2018-12-29T02:27:27.733Z,81.13
2018-12-29T02:28:27.673Z,80.46
2018-12-29T02:29:27.603Z,80.46
2018-12-29T02:30:27.547Z,80.56
2018-12-29T02:31:27.478Z,80.37
2018-12-29T02:32:27.419Z,80.18
2018-12-29T02:33:27.356Z,80.27
2018-12-29T02:34:27.418Z,80.65
2018-12-29T02:35:27.231Z,80.37
2018-12-29T02:36:27.169Z,80.37
2018-12-29T02:37:27.107Z,80.18
2018-12-29T02:38:27.044Z,80.27
2018-12-29T02:39:26.993Z,80.56
2018-12-29T02:40:26.920Z,80.27
2018-12-29T02:41:26.858Z,80.56
2018-12-29T02:42:26.796Z,81.13
2018-12-29T02:43:26.737Z,81.04
2018-12-29T02:44:26.674Z,81.04
2018-12-29T02:45:33.008Z,81.04
2018-12-29T02:46:26.544Z,81.04
2018-12-29T02:47:26.483Z,81.04
2018-12-29T02:48:26.422Z,81.04
2018-12-29T02:49:26.366Z,81.04
2018-12-29T02:50:26.297Z,81.04
2018-12-29T02:51:26.247Z,81.04
2018-12-29T02:52:26.176Z,81.04
2018-12-29T02:53:26.112Z,81.13
2018-12-29T02:54:26.050Z,81.04
2018-12-29T02:55:25.986Z,81.13
2018-12-29T02:56:25.924Z,81.04
2018-12-29T02:57:25.861Z,81.04
2018-12-29T02:58:25.803Z,81.04
2018-12-29T02:59:25.749Z,80.94
2018-12-29T03:00:25.675Z,81.04
2018-12-29T03:01:25.615Z,80.94
2018-12-29T03:02:25.553Z,81.13
2018-12-29T03:03:25.489Z,81.13
2018-12-29T03:04:25.432Z,81.13
2018-12-29T03:05:25.365Z,81.13
2018-12-29T03:06:25.407Z,80.56
2018-12-29T03:07:25.242Z,81.04
2018-12-29T03:08:25.177Z,80.46
2018-12-29T03:09:25.115Z,81.04
2018-12-29T03:10:25.070Z,81.04
2018-12-29T03:11:24.992Z,81.13
2018-12-29T03:12:24.932Z,81.13
2018-12-29T03:13:24.866Z,81.04
2018-12-29T03:14:24.810Z,81.04
2018-12-29T03:15:24.745Z,81.04
2018-12-29T03:16:24.680Z,81.13
2018-12-29T03:17:24.619Z,81.04
2018-12-29T03:18:24.559Z,81.13
2018-12-29T03:19:24.494Z,81.04
2018-12-29T03:20:24.432Z,80.75
2018-12-29T03:21:24.370Z,81.04
2018-12-29T03:22:24.306Z,80.75
2018-12-29T03:23:24.248Z,81.04
2018-12-29T03:24:24.183Z,80.65
2018-12-29T03:25:24.127Z,81.04
2018-12-29T03:26:24.058Z,81.04
2018-12-29T03:27:23.999Z,80.94
2018-12-29T03:28:23.936Z,81.04
2018-12-29T03:29:23.872Z,80.65
2018-12-29T03:30:23.818Z,81.23
2018-12-29T03:31:23.750Z,81.13
2018-12-29T03:32:23.686Z,81.13
2018-12-29T03:33:23.623Z,81.13
2018-12-29T03:34:23.561Z,81.04
2018-12-29T03:35:23.499Z,81.04
2018-12-29T03:36:23.437Z,81.04
2018-12-29T03:37:23.375Z,81.04
2018-12-29T03:38:23.317Z,81.04
2018-12-29T03:39:23.253Z,81.13
2018-12-29T03:40:23.192Z,81.13
2018-12-29T03:41:23.127Z,81.13
2018-12-29T03:42:23.064Z,81.04
2018-12-29T03:43:23.189Z,81.04
2018-12-29T03:44:22.945Z,81.04
2018-12-29T03:45:22.885Z,80.94
2018-12-29T03:46:22.815Z,81.04
2018-12-29T03:47:22.757Z,81.13
2018-12-29T03:48:22.691Z,81.13
2018-12-29T03:49:22.629Z,81.04
2018-12-29T03:50:22.565Z,81.13
2018-12-29T03:51:22.505Z,80.94
2018-12-29T03:52:22.441Z,81.13
2018-12-29T03:53:22.382Z,81.04
2018-12-29T03:54:22.319Z,80.94
2018-12-29T03:55:22.256Z,81.04
2018-12-29T03:56:22.193Z,81.13
2018-12-29T03:57:22.133Z,81.13
2018-12-29T03:58:22.072Z,81.13
2018-12-29T03:59:22.008Z,81.13
2018-12-29T04:00:21.945Z,81.13
2018-12-29T04:01:21.882Z,81.04
2018-12-29T04:02:21.821Z,81.04
2018-12-29T04:03:21.759Z,81.04
2018-12-29T04:04:21.695Z,81.04
2018-12-29T04:05:21.634Z,81.04
2018-12-29T04:06:21.572Z,81.04
2018-12-29T04:07:21.509Z,81.04
2018-12-29T04:08:21.447Z,81.04
2018-12-29T04:09:21.385Z,81.04
2018-12-29T04:10:21.323Z,81.04
2018-12-29T04:11:21.260Z,81.04
2018-12-29T04:12:21.201Z,81.04
2018-12-29T04:13:21.139Z,81.04
2018-12-29T04:14:21.082Z,81.04
2018-12-29T04:15:21.014Z,81.04
2018-12-29T04:16:20.951Z,81.13
2018-12-29T04:17:20.888Z,81.04
2018-12-29T04:18:20.844Z,81.04
2018-12-29T04:19:20.762Z,80.94
2018-12-29T04:20:20.701Z,81.13
2018-12-29T04:21:20.640Z,81.13
2018-12-29T04:22:20.575Z,81.13
2018-12-29T04:23:20.514Z,81.23
2018-12-29T04:24:20.454Z,81.13
2018-12-29T04:25:20.391Z,80.65
2018-12-29T04:26:20.331Z,81.13
2018-12-29T04:27:20.265Z,81.23
2018-12-29T04:28:20.205Z,80.94
2018-12-29T04:29:20.141Z,81.13
2018-12-29T04:30:20.078Z,81.04
2018-12-29T04:31:20.016Z,81.04
2018-12-29T04:32:22.747Z,80.94
2018-12-29T04:33:19.893Z,81.04
2018-12-29T04:34:19.829Z,81.04
2018-12-29T04:35:19.768Z,81.04
2018-12-29T04:36:19.706Z,81.04
2018-12-29T04:37:19.652Z,80.75
2018-12-29T04:38:19.581Z,81.04
2018-12-29T04:39:19.519Z,80.46
2018-12-29T04:40:19.457Z,81.04
2018-12-29T04:41:19.396Z,80.94
2018-12-29T04:42:19.340Z,81.04
2018-12-29T04:43:19.270Z,80.94
2018-12-29T04:44:19.208Z,81.13
2018-12-29T04:45:19.147Z,80.94
2018-12-29T04:46:19.083Z,81.23
2018-12-29T04:47:19.022Z,81.04
2018-12-29T04:48:18.960Z,80.46
2018-12-29T04:49:18.972Z,80.75
2018-12-29T04:50:18.835Z,81.23
2018-12-29T04:51:18.775Z,80.65
2018-12-29T04:52:18.711Z,80.37
2018-12-29T04:53:18.649Z,80.37
2018-12-29T04:54:18.587Z,80.56
2018-12-29T04:55:18.525Z,80.65
2018-12-29T04:56:18.462Z,80.84
2018-12-29T04:57:18.400Z,80.46
2018-12-29T04:58:18.338Z,80.65
2018-12-29T04:59:18.275Z,80.84
2018-12-29T05:00:18.219Z,80.75
2018-12-29T05:01:18.160Z,80.56
2018-12-29T05:02:18.093Z,80.75
2018-12-29T05:03:18.026Z,80.56
2018-12-29T05:04:17.964Z,80.84
2018-12-29T05:05:17.903Z,80.65
2018-12-29T05:06:17.839Z,80.56
2018-12-29T05:07:17.778Z,80.84
2018-12-29T05:08:17.716Z,80.65
2018-12-29T05:09:17.654Z,80.65
2018-12-29T05:10:17.603Z,80.75
2018-12-29T05:11:17.528Z,80.56
2018-12-29T05:12:17.472Z,80.84
2018-12-29T05:13:17.408Z,80.84
2018-12-29T05:14:17.342Z,80.75
2018-12-29T05:15:17.281Z,80.56
2018-12-29T05:16:17.218Z,80.84
2018-12-29T05:17:17.157Z,80.84
2018-12-29T05:18:17.092Z,80.65
2018-12-29T05:19:17.032Z,80.65
2018-12-29T05:20:16.969Z,80.56
2018-12-29T05:21:16.908Z,80.84
2018-12-29T05:22:16.844Z,80.65
2018-12-29T05:23:16.784Z,80.56
2018-12-29T05:24:16.722Z,80.84
2018-12-29T05:25:16.663Z,80.56
2018-12-29T05:26:16.596Z,80.84
2018-12-29T05:27:16.534Z,80.46
2018-12-29T05:28:16.472Z,80.84
2018-12-29T05:29:16.410Z,80.75
2018-12-29T05:30:16.348Z,80.75
2018-12-29T05:31:16.285Z,80.65
2018-12-29T05:32:16.224Z,80.75
2018-12-29T05:33:16.164Z,80.84
2018-12-29T05:34:16.099Z,80.56
2018-12-29T05:35:16.044Z,80.56
2018-12-29T05:36:15.975Z,80.56
2018-12-29T05:37:15.914Z,80.46
2018-12-29T05:38:15.850Z,80.75
2018-12-29T05:39:15.788Z,80.56
2018-12-29T05:40:15.725Z,80.65
2018-12-29T05:41:15.663Z,80.56
2018-12-29T05:42:15.600Z,80.65
2018-12-29T05:43:15.540Z,80.84
2018-12-29T05:44:15.477Z,80.75
2018-12-29T05:45:15.417Z,80.56
2018-12-29T05:46:20.393Z,80.65
2018-12-29T05:47:15.290Z,80.84
2018-12-29T05:48:15.233Z,80.75
2018-12-29T05:49:15.166Z,80.65
2018-12-29T05:50:15.104Z,80.56
2018-12-29T05:51:15.048Z,80.75
2018-12-29T05:52:14.978Z,80.84
2018-12-29T05:53:14.942Z,80.56
2018-12-29T05:54:14.855Z,80.65
2018-12-29T05:55:14.806Z,80.56
2018-12-29T05:56:14.735Z,80.75
2018-12-29T05:57:14.670Z,80.75
2018-12-29T05:58:14.606Z,80.94
2018-12-29T05:59:14.545Z,80.46
2018-12-29T06:00:14.484Z,80.84
2018-12-29T06:01:14.423Z,80.65
2018-12-29T06:02:14.358Z,80.56
2018-12-29T06:03:14.295Z,80.84
2018-12-29T06:04:14.235Z,80.75
2018-12-29T06:05:14.176Z,80.56
2018-12-29T06:06:14.108Z,80.65
2018-12-29T06:07:14.046Z,80.75
2018-12-29T06:08:13.986Z,80.56
2018-12-29T06:09:13.922Z,80.56
2018-12-29T06:10:13.859Z,80.94
2018-12-29T06:11:13.800Z,80.56
2018-12-29T06:12:13.736Z,80.75
2018-12-29T06:13:13.676Z,80.84
2018-12-29T06:14:13.612Z,80.75
2018-12-29T06:15:13.552Z,80.46
2018-12-29T06:16:13.488Z,80.75
2018-12-29T06:17:13.425Z,80.75
2018-12-29T06:18:13.362Z,80.75
2018-12-29T06:19:13.300Z,80.94
2018-12-29T06:20:13.238Z,81.04
2018-12-29T06:21:13.176Z,80.94
2018-12-29T06:22:13.115Z,81.32
2018-12-29T06:23:13.052Z,80.65
2018-12-29T06:24:12.988Z,80.56
2018-12-29T06:25:12.927Z,81.13
2018-12-29T06:26:12.864Z,81.04
2018-12-29T06:27:12.802Z,81.04
2018-12-29T06:28:12.741Z,81.04
2018-12-29T06:29:12.679Z,81.04
2018-12-29T06:30:12.615Z,80.75
2018-12-29T06:31:12.554Z,81.04
2018-12-29T06:32:12.493Z,81.23
2018-12-29T06:33:12.431Z,81.23
2018-12-29T06:34:12.368Z,80.94
2018-12-29T06:35:12.307Z,81.13
2018-12-29T06:36:12.244Z,80.94
2018-12-29T06:37:12.181Z,80.94
2018-12-29T06:38:12.118Z,81.04
2018-12-29T06:39:12.058Z,81.04
2018-12-29T06:40:11.994Z,80.84
2018-12-29T06:41:11.933Z,81.32
2018-12-29T06:42:11.869Z,80.56
2018-12-29T06:43:11.883Z,80.94
2018-12-29T06:44:11.749Z,81.13
2018-12-29T06:45:11.684Z,81.13
2018-12-29T06:46:11.621Z,81.13
2018-12-29T06:47:11.559Z,80.56
2018-12-29T06:48:11.501Z,80.94
2018-12-29T06:49:11.435Z,80.94
2018-12-29T06:50:11.373Z,81.04
2018-12-29T06:51:11.310Z,80.94
2018-12-29T06:52:11.248Z,81.04
2018-12-29T06:53:11.186Z,80.94
2018-12-29T06:54:11.123Z,80.94
2018-12-29T06:55:11.060Z,80.94
2018-12-29T06:56:10.999Z,80.94
2018-12-29T06:57:10.938Z,81.13
2018-12-29T06:58:10.876Z,80.94
2018-12-29T06:59:10.813Z,81.04
2018-12-29T07:00:10.752Z,81.04
2018-12-29T07:01:10.688Z,81.13
2018-12-29T07:02:10.625Z,81.04
2018-12-29T07:03:10.563Z,81.04
2018-12-29T07:04:10.504Z,81.13
2018-12-29T07:05:10.441Z,81.04
2018-12-29T07:06:10.377Z,80.94
2018-12-29T07:07:10.314Z,80.56
2018-12-29T07:08:10.254Z,81.23
2018-12-29T07:09:10.191Z,81.23
2018-12-29T07:10:10.151Z,81.23
2018-12-29T07:11:10.068Z,81.04
2018-12-29T07:12:10.007Z,81.13
2018-12-29T07:13:09.942Z,81.04
2018-12-29T07:14:09.879Z,81.04
2018-12-29T07:15:09.817Z,80.65
2018-12-29T07:16:09.756Z,80.75
2018-12-29T07:17:09.694Z,81.04
2018-12-29T07:18:09.630Z,80.94
2018-12-29T07:19:09.571Z,80.56
2018-12-29T07:20:09.507Z,80.65
2018-12-29T07:21:09.447Z,80.56
2018-12-29T07:22:09.381Z,80.84
2018-12-29T07:23:09.319Z,80.75
2018-12-29T07:24:09.258Z,80.84
2018-12-29T07:25:09.200Z,80.75
2018-12-29T07:26:09.134Z,81.04
2018-12-29T07:27:09.071Z,80.75
2018-12-29T07:28:09.009Z,80.65
2018-12-29T07:29:08.955Z,80.65
2018-12-29T07:30:08.885Z,81.04
2018-12-29T07:31:08.822Z,80.65
2018-12-29T07:32:08.762Z,81.13
2018-12-29T07:33:08.698Z,80.65
2018-12-29T07:34:08.637Z,80.84
2018-12-29T07:35:08.575Z,80.65
2018-12-29T07:36:08.511Z,80.65
2018-12-29T07:37:08.450Z,81.04
2018-12-29T07:38:08.386Z,80.75
2018-12-29T07:39:08.327Z,80.65
2018-12-29T07:40:08.263Z,81.04
2018-12-29T07:41:08.200Z,81.04
2018-12-29T07:42:08.136Z,81.13
2018-12-29T07:43:08.081Z,80.94
2018-12-29T07:44:08.013Z,81.13
2018-12-29T07:45:07.958Z,81.13
2018-12-29T07:46:07.892Z,81.04
2018-12-29T07:47:07.834Z,81.23
2018-12-29T07:48:07.768Z,81.13
2018-12-29T07:49:07.703Z,81.23
2018-12-29T07:50:07.641Z,81.32
2018-12-29T07:51:07.578Z,81.32
2018-12-29T07:52:07.516Z,81.32
2018-12-29T07:53:07.458Z,80.94
2018-12-29T07:54:07.391Z,80.94
2018-12-29T07:55:07.333Z,81.04
2018-12-29T07:56:07.267Z,81.23
2018-12-29T07:57:07.207Z,81.04
2018-12-29T07:58:07.142Z,81.13
2018-12-29T07:59:07.080Z,81.13
2018-12-29T08:00:07.024Z,81.13
2018-12-29T08:01:06.956Z,81.04
2018-12-29T08:02:06.894Z,81.04
2018-12-29T08:03:06.834Z,81.04
2018-12-29T08:04:06.768Z,81.13
2018-12-29T08:05:06.706Z,81.23
2018-12-29T08:06:06.643Z,81.13
2018-12-29T08:07:06.589Z,81.23
2018-12-29T08:08:06.519Z,80.65
2018-12-29T08:09:06.458Z,80.65
2018-12-29T08:10:06.395Z,81.23
2018-12-29T08:11:06.332Z,80.94
2018-12-29T08:12:06.270Z,80.94
2018-12-29T08:13:06.209Z,80.94
2018-12-29T08:14:06.147Z,80.94
2018-12-29T08:15:06.086Z,80.94
2018-12-29T08:16:06.022Z,80.94
2018-12-29T08:17:05.959Z,81.13
2018-12-29T08:18:05.899Z,80.94
2018-12-29T08:19:05.835Z,81.13
2018-12-29T08:20:05.774Z,81.04
2018-12-29T08:21:05.711Z,81.13
2018-12-29T08:22:05.650Z,81.23
2018-12-29T08:23:05.586Z,81.23
2018-12-29T08:24:05.526Z,81.23
2018-12-29T08:25:05.463Z,81.23
2018-12-29T08:26:05.401Z,81.23
2018-12-29T08:27:05.381Z,81.13
2018-12-29T08:28:05.277Z,81.23
2018-12-29T08:29:05.213Z,81.04
2018-12-29T08:30:05.151Z,81.13
2018-12-29T08:31:05.089Z,81.04
2018-12-29T08:32:05.031Z,81.04
2018-12-29T08:33:04.965Z,81.23
2018-12-29T08:34:04.901Z,80.94
2018-12-29T08:35:04.841Z,81.04
2018-12-29T08:36:04.777Z,81.04
2018-12-29T08:37:04.720Z,81.04
2018-12-29T08:38:04.654Z,81.04
2018-12-29T08:39:04.591Z,81.04
2018-12-29T08:40:04.529Z,81.13
2018-12-29T08:41:04.471Z,81.04
2018-12-29T08:42:04.405Z,81.04
2018-12-29T08:43:04.344Z,81.04
2018-12-29T08:44:04.280Z,80.84
2018-12-29T08:45:04.219Z,81.04
2018-12-29T08:46:04.160Z,81.13
2018-12-29T08:47:04.689Z,80.84
2018-12-29T08:48:04.035Z,80.84
2018-12-29T08:49:03.969Z,81.04
2018-12-29T08:50:03.910Z,81.23
2018-12-29T08:51:03.845Z,81.13
2018-12-29T08:52:03.782Z,80.94
2018-12-29T08:53:03.721Z,80.84
2018-12-29T08:54:03.658Z,80.94
2018-12-29T08:55:03.596Z,81.04
2018-12-29T08:56:03.533Z,80.84
2018-12-29T08:57:03.480Z,81.23
2018-12-29T08:58:03.409Z,81.04
2018-12-29T08:59:03.348Z,80.84
2018-12-29T09:00:03.289Z,81.13
2018-12-29T09:01:03.224Z,80.94
2018-12-29T09:02:03.161Z,81.04
2018-12-29T09:03:03.098Z,81.04
2018-12-29T09:04:03.040Z,80.94
2018-12-29T09:05:02.975Z,81.04
2018-12-29T09:06:02.911Z,80.94
2018-12-29T09:07:02.852Z,81.04
2018-12-29T09:08:02.787Z,81.13
2018-12-29T09:09:02.726Z,81.04
2018-12-29T09:10:02.663Z,81.04
2018-12-29T09:11:02.604Z,81.04
2018-12-29T09:12:02.542Z,81.04
2018-12-29T09:13:02.477Z,81.51
2018-12-29T09:14:02.414Z,81.51
2018-12-29T09:15:02.356Z,81.04
2018-12-29T09:16:02.290Z,81.41
2018-12-29T09:17:02.229Z,81.23
2018-12-29T09:18:02.166Z,81.23
2018-12-29T09:19:02.103Z,81.32
2018-12-29T09:20:02.042Z,81.32
2018-12-29T09:21:01.979Z,81.41
2018-12-29T09:22:01.921Z,81.23
2018-12-29T09:23:01.854Z,81.23
2018-12-29T09:24:01.793Z,81.32
2018-12-29T09:25:01.732Z,81.23
2018-12-29T09:26:01.668Z,81.41
2018-12-29T09:27:01.605Z,81.32
2018-12-29T09:28:01.545Z,81.41
2018-12-29T09:29:01.503Z,81.23
2018-12-29T09:30:01.422Z,81.13
2018-12-29T09:31:01.363Z,81.23
2018-12-29T09:32:01.299Z,81.32
2018-12-29T09:33:01.234Z,81.23
2018-12-29T09:34:01.170Z,81.41
2018-12-29T09:35:01.123Z,81.04
2018-12-29T09:36:01.046Z,81.41
2018-12-29T09:37:00.984Z,81.32
2018-12-29T09:38:00.921Z,81.04
2018-12-29T09:39:00.865Z,81.23
2018-12-29T09:40:00.798Z,81.60
2018-12-29T09:41:00.742Z,80.84
2018-12-29T09:42:00.672Z,81.60
2018-12-29T09:43:00.611Z,80.84
2018-12-29T09:44:00.548Z,81.32
2018-12-29T09:45:00.487Z,80.94
2018-12-29T09:46:00.423Z,81.32
2018-12-29T09:47:00.361Z,80.94
2018-12-29T09:48:00.298Z,80.94
2018-12-29T09:49:00.241Z,81.04
2018-12-29T09:50:00.179Z,80.94
2018-12-29T09:51:00.113Z,80.84
2018-12-29T09:52:00.050Z,81.04
2018-12-29T09:52:59.993Z,81.23
2018-12-29T09:53:59.927Z,80.84
2018-12-29T09:54:59.864Z,80.94
2018-12-29T09:55:59.802Z,81.04
2018-12-29T09:56:59.752Z,80.94
2018-12-29T09:57:59.677Z,81.41
2018-12-29T09:58:59.619Z,81.04
2018-12-29T09:59:59.554Z,81.23
2018-12-29T10:00:59.491Z,81.32
2018-12-29T10:01:59.427Z,81.04
2018-12-29T10:02:59.366Z,81.23
2018-12-29T10:03:59.306Z,81.32
2018-12-29T10:04:59.244Z,81.23
2018-12-29T10:05:59.179Z,81.13
2018-12-29T10:06:59.117Z,81.32
2018-12-29T10:07:59.055Z,81.23
2018-12-29T10:08:59.026Z,81.60
2018-12-29T10:09:58.931Z,81.32
2018-12-29T10:10:58.870Z,81.23
2018-12-29T10:11:58.809Z,81.60
2018-12-29T10:12:58.764Z,81.70
2018-12-29T10:13:58.686Z,81.60
2018-12-29T10:14:58.631Z,81.60
2018-12-29T10:15:58.558Z,81.70
2018-12-29T10:16:58.496Z,81.51
2018-12-29T10:17:58.433Z,81.60
2018-12-29T10:18:58.372Z,81.51
2018-12-29T10:19:58.309Z,81.79
2018-12-29T10:20:58.255Z,81.51
2018-12-29T10:21:58.185Z,81.51
2018-12-29T10:22:58.126Z,81.51
2018-12-29T10:23:58.060Z,81.70
2018-12-29T10:24:57.998Z,81.51
2018-12-29T10:25:57.934Z,81.70
2018-12-29T10:26:57.875Z,81.41
2018-12-29T10:27:57.813Z,81.79
2018-12-29T10:28:57.751Z,81.51
2018-12-29T10:29:57.688Z,81.41
2018-12-29T10:30:57.626Z,81.41
2018-12-29T10:31:57.564Z,81.60
2018-12-29T10:32:57.501Z,81.41
2018-12-29T10:33:57.440Z,81.60
2018-12-29T10:34:57.378Z,81.41
2018-12-29T10:35:57.314Z,81.41
2018-12-29T10:36:57.253Z,81.51
2018-12-29T10:37:57.189Z,81.60
2018-12-29T10:38:57.127Z,81.60
2018-12-29T10:39:57.066Z,81.60
2018-12-29T10:40:57.005Z,81.41
2018-12-29T10:41:56.943Z,81.51
2018-12-29T10:42:56.879Z,81.60
2018-12-29T10:43:56.818Z,81.60
2018-12-29T10:44:56.756Z,81.51
2018-12-29T10:45:56.703Z,81.60
2018-12-29T10:46:56.630Z,81.23
2018-12-29T10:47:56.568Z,81.60
2018-12-29T10:48:56.507Z,81.41
2018-12-29T10:49:56.445Z,81.41
2018-12-29T10:50:56.381Z,81.41
2018-12-29T10:51:56.319Z,81.41
2018-12-29T10:52:56.261Z,81.41
2018-12-29T10:53:56.194Z,81.41
2018-12-29T10:54:56.133Z,81.23
2018-12-29T10:55:56.071Z,81.23
2018-12-29T10:56:56.011Z,81.13
2018-12-29T10:57:55.947Z,81.23
2018-12-29T10:58:55.885Z,81.23
2018-12-29T10:59:55.822Z,81.41
2018-12-29T11:00:55.762Z,81.51
2018-12-29T11:01:55.697Z,81.41
2018-12-29T11:02:55.635Z,81.41
2018-12-29T11:03:55.575Z,81.60
2018-12-29T11:04:55.511Z,81.60
2018-12-29T11:05:55.448Z,81.60
2018-12-29T11:06:55.387Z,81.60
2018-12-29T11:07:55.333Z,81.41
2018-12-29T11:08:55.263Z,81.23
2018-12-29T11:09:55.205Z,81.88
2018-12-29T11:10:55.139Z,81.98
2018-12-29T11:11:55.080Z,81.79
2018-12-29T11:12:55.015Z,81.79
2018-12-29T11:13:54.951Z,81.79
2018-12-29T11:14:54.893Z,81.88
2018-12-29T11:15:54.831Z,81.88
2018-12-29T11:16:54.765Z,81.79
2018-12-29T11:17:55.328Z,81.88
2018-12-29T11:18:54.641Z,81.88
2018-12-29T11:19:54.579Z,81.79
2018-12-29T11:20:54.516Z,81.79
2018-12-29T11:21:54.454Z,81.88
2018-12-29T11:22:54.397Z,81.79
2018-12-29T11:23:54.329Z,81.88
2018-12-29T11:24:54.269Z,81.79
2018-12-29T11:25:54.206Z,81.98
2018-12-29T11:26:54.146Z,82.17
2018-12-29T11:27:54.159Z,82.46
2018-12-29T11:28:54.038Z,82.36
2018-12-29T11:29:53.960Z,82.46
2018-12-29T11:30:53.895Z,82.08
2018-12-29T11:31:53.833Z,82.17
2018-12-29T11:32:53.776Z,82.36
2018-12-29T11:33:53.709Z,82.08
2018-12-29T11:34:53.648Z,82.36
2018-12-29T11:35:53.584Z,82.17
2018-12-29T11:36:53.522Z,82.17
2018-12-29T11:37:53.459Z,82.08
2018-12-29T11:38:53.408Z,82.17
2018-12-29T11:39:53.341Z,82.27
2018-12-29T11:40:53.275Z,81.98
2018-12-29T11:41:53.215Z,82.46
2018-12-29T11:42:53.150Z,82.36
2018-12-29T11:43:53.090Z,82.36
2018-12-29T11:44:53.025Z,82.08
2018-12-29T11:45:52.963Z,81.98
2018-12-29T11:46:52.902Z,82.17
2018-12-29T11:47:52.839Z,82.36
2018-12-29T11:48:52.777Z,82.17
2018-12-29T11:49:52.718Z,82.17
2018-12-29T11:50:52.653Z,82.27
2018-12-29T11:51:52.591Z,82.08
2018-12-29T11:52:52.532Z,82.08
2018-12-29T11:53:52.466Z,82.27
2018-12-29T11:54:52.412Z,82.17
2018-12-29T11:55:52.347Z,82.08
2018-12-29T11:56:52.284Z,82.08
2018-12-29T11:57:52.219Z,82.17
2018-12-29T11:58:52.158Z,82.08
2018-12-29T11:59:52.095Z,82.17
2018-12-29T12:00:52.034Z,82.27
2018-12-29T12:01:51.976Z,82.27
2018-12-29T12:02:51.908Z,82.08
2018-12-29T12:03:51.851Z,81.98
2018-12-29T12:04:51.785Z,82.17
2018-12-29T12:05:51.722Z,82.27
2018-12-29T12:06:51.658Z,82.17
2018-12-29T12:07:51.598Z,82.27
2018-12-29T12:08:52.342Z,82.27
2018-12-29T12:09:51.471Z,81.88
2018-12-29T12:10:51.410Z,82.17
2018-12-29T12:11:51.348Z,82.17
2018-12-29T12:12:51.285Z,82.08
2018-12-29T12:13:51.224Z,82.17
2018-12-29T12:14:51.163Z,82.08
2018-12-29T12:15:51.100Z,82.17
2018-12-29T12:16:51.037Z,82.08
2018-12-29T12:17:57.314Z,82.27
2018-12-29T12:18:50.914Z,81.98
2018-12-29T12:19:51.841Z,82.08
2018-12-29T12:20:50.789Z,81.98
2018-12-29T12:21:50.728Z,82.27
2018-12-29T12:22:50.665Z,82.27
2018-12-29T12:23:50.604Z,81.98
2018-12-29T12:24:50.541Z,82.08
2018-12-29T12:25:50.478Z,82.17
2018-12-29T12:26:50.417Z,82.17
2018-12-29T12:27:50.355Z,82.27
2018-12-29T12:28:50.292Z,82.17
2018-12-29T12:29:50.231Z,82.27
2018-12-29T12:30:50.169Z,82.17
2018-12-29T12:31:50.112Z,81.98
2018-12-29T12:32:50.049Z,81.98
2018-12-29T12:33:49.983Z,81.98
2018-12-29T12:34:49.923Z,81.98
2018-12-29T12:35:49.860Z,82.27
2018-12-29T12:36:49.797Z,81.79
2018-12-29T12:37:49.732Z,82.08
2018-12-29T12:38:49.672Z,81.79
2018-12-29T12:39:49.613Z,82.27
2018-12-29T12:40:49.548Z,82.08
2018-12-29T12:41:49.485Z,82.17
2018-12-29T12:42:49.423Z,81.79
2018-12-29T12:43:49.364Z,81.70
2018-12-29T12:44:49.298Z,82.17
2018-12-29T12:45:49.236Z,81.79
2018-12-29T12:46:49.176Z,81.70
2018-12-29T12:47:49.134Z,81.98
2018-12-29T12:48:49.050Z,81.98
2018-12-29T12:49:48.988Z,82.17
2018-12-29T12:50:48.926Z,81.98
2018-12-29T12:51:48.863Z,82.17